createdAt,value
2023-07-16T00:00:30.490Z,5.20
2023-07-16T00:02:58.674Z,5.57
2023-07-16T00:05:26.700Z,5.68
2023-07-16T00:08:03.307Z,4.68
2023-07-16T00:10:31.704Z,4.15
2023-07-16T00:12:59.644Z,3.75
2023-07-16T00:15:29.209Z,3.72
2023-07-16T00:17:57.531Z,3.92
2023-07-16T00:20:28.655Z,3.35
2023-07-16T00:22:59.717Z,2.90
2023-07-16T00:25:27.661Z,3.33
2023-07-16T00:27:55.562Z,3.87
2023-07-16T00:30:27.200Z,2.72
2023-07-16T00:32:58.119Z,2.40
2023-07-16T00:35:26.151Z,3.58
2023-07-16T00:37:54.260Z,3.28
2023-07-16T00:40:22.336Z,1.60
2023-07-16T00:42:50.270Z,2.03
2023-07-16T00:45:18.258Z,1.58
2023-07-16T00:47:47.006Z,1.73
2023-07-16T00:50:15.765Z,1.67
2023-07-16T00:52:43.922Z,1.80
2023-07-16T00:55:12.230Z,1.52
2023-07-16T00:57:42.338Z,1.20
2023-07-16T01:00:12.191Z,1.20
2023-07-16T01:02:40.348Z,1.75
2023-07-16T01:05:08.729Z,4.28
2023-07-16T01:07:39.380Z,1.83
2023-07-16T01:10:08.038Z,1.50
2023-07-16T01:12:36.383Z,2.22
2023-07-16T01:15:04.746Z,2.47
2023-07-16T01:17:32.735Z,2.72
2023-07-16T01:20:00.647Z,1.62
2023-07-16T01:22:47.884Z,1.67
2023-07-16T01:25:33.525Z,1.55
2023-07-16T01:28:51.354Z,1.95
2023-07-16T01:31:20.112Z,1.62
2023-07-16T01:33:48.855Z,1.27
2023-07-16T01:36:18.669Z,1.77
2023-07-16T01:38:47.740Z,2.20
2023-07-16T01:41:15.733Z,3.15
2023-07-16T01:43:43.630Z,1.77
2023-07-16T01:46:11.561Z,3.22
2023-07-16T01:48:40.662Z,3.33
2023-07-16T01:51:08.632Z,1.60
2023-07-16T01:53:36.589Z,1.48
2023-07-16T01:56:04.752Z,1.90
2023-07-16T01:58:32.677Z,1.50
2023-07-16T02:01:01.174Z,1.80
2023-07-16T02:03:29.253Z,2.45
2023-07-16T02:05:57.441Z,1.37
2023-07-16T02:08:25.352Z,1.90
2023-07-16T02:10:53.421Z,2.20
2023-07-16T02:13:21.314Z,2.08
2023-07-16T02:15:49.237Z,1.90
2023-07-16T02:18:17.220Z,1.25
2023-07-16T02:20:45.880Z,1.65
2023-07-16T02:23:13.790Z,1.95
2023-07-16T02:25:41.715Z,1.40
2023-07-16T02:28:09.628Z,2.17
2023-07-16T02:30:37.570Z,1.83
2023-07-16T02:33:05.612Z,1.62
2023-07-16T02:35:33.503Z,1.92
2023-07-16T02:38:01.405Z,11.77
2023-07-16T02:40:29.346Z,2.50
2023-07-16T02:42:57.314Z,1.40
2023-07-16T02:45:25.211Z,2.28
2023-07-16T02:47:53.221Z,1.67
2023-07-16T02:50:21.251Z,1.40
2023-07-16T02:52:49.180Z,1.45
2023-07-16T02:55:17.136Z,1.83
2023-07-16T02:57:45.016Z,1.48
2023-07-16T03:00:13.346Z,2.20
2023-07-16T03:02:41.387Z,1.73
2023-07-16T03:05:10.686Z,1.60
2023-07-16T03:07:38.611Z,1.40
2023-07-16T03:10:06.947Z,1.60
2023-07-16T03:12:35.043Z,1.50
2023-07-16T03:15:03.047Z,6.57
2023-07-16T03:17:30.963Z,3.53
2023-07-16T03:19:58.839Z,1.87
2023-07-16T03:22:26.877Z,3.55
2023-07-16T03:24:54.895Z,2.25
2023-07-16T03:27:24.148Z,2.97
2023-07-16T03:29:53.041Z,2.15
2023-07-16T03:32:21.131Z,1.98
2023-07-16T03:34:49.120Z,2.97
2023-07-16T03:37:17.106Z,2.25
2023-07-16T03:39:45.093Z,1.98
2023-07-16T03:42:13.038Z,1.95
2023-07-16T03:44:41.092Z,2.45
2023-07-16T03:47:09.019Z,3.65
2023-07-16T03:49:37.153Z,4.10
2023-07-16T03:52:05.300Z,2.37
2023-07-16T03:54:33.259Z,2.42
2023-07-16T03:57:01.255Z,2.97
2023-07-16T03:59:29.162Z,2.75
2023-07-16T04:01:57.224Z,2.05
2023-07-16T04:04:25.167Z,5.40
2023-07-16T04:06:53.050Z,2.25
2023-07-16T04:09:21.000Z,2.58
2023-07-16T04:11:48.976Z,1.80
2023-07-16T04:14:16.916Z,1.75
2023-07-16T04:16:45.072Z,2.83
2023-07-16T04:19:13.108Z,1.90
2023-07-16T04:21:41.612Z,1.60
2023-07-16T04:24:09.562Z,2.22
2023-07-16T04:26:37.500Z,2.20
2023-07-16T04:29:06.162Z,2.58
2023-07-16T04:31:34.130Z,4.75
2023-07-16T04:34:02.084Z,2.55
2023-07-16T04:36:30.051Z,1.55
2023-07-16T04:38:57.934Z,2.33
2023-07-16T04:41:25.991Z,2.12
2023-07-16T04:43:53.948Z,1.50
2023-07-16T04:46:21.983Z,2.95
2023-07-16T04:48:49.925Z,1.85
2023-07-16T04:51:18.018Z,3.28
2023-07-16T04:53:46.721Z,1.73
2023-07-16T04:56:15.840Z,1.77
2023-07-16T04:58:44.961Z,2.40
2023-07-16T05:01:13.327Z,1.70
2023-07-16T05:03:41.453Z,2.00
2023-07-16T05:06:09.526Z,3.33
2023-07-16T05:08:37.422Z,1.60
2023-07-16T05:11:05.391Z,1.73
2023-07-16T05:13:33.311Z,1.52
2023-07-16T05:16:01.292Z,1.70
2023-07-16T05:18:29.383Z,2.53
2023-07-16T05:20:57.372Z,2.00
2023-07-16T05:23:25.387Z,1.73
2023-07-16T05:25:53.267Z,1.62
2023-07-16T05:28:21.812Z,2.12
2023-07-16T05:30:49.980Z,1.33
2023-07-16T05:33:17.939Z,2.03
2023-07-16T05:35:51.716Z,1.35
2023-07-16T05:38:19.716Z,1.73
2023-07-16T05:40:47.691Z,2.20
2023-07-16T05:43:17.172Z,1.60
2023-07-16T05:45:45.192Z,2.15
2023-07-16T05:48:14.253Z,1.58
2023-07-16T05:50:42.368Z,1.52
2023-07-16T05:53:10.386Z,2.08
2023-07-16T05:55:38.308Z,1.65
2023-07-16T05:58:06.233Z,1.60
2023-07-16T06:00:34.418Z,1.87
2023-07-16T06:03:03.633Z,1.67
2023-07-16T06:05:36.392Z,1.70
2023-07-16T06:08:04.449Z,5.57
2023-07-16T06:10:32.367Z,1.98
2023-07-16T06:13:00.326Z,2.15
2023-07-16T06:15:28.328Z,2.83
2023-07-16T06:17:56.232Z,1.87
2023-07-16T06:20:24.237Z,1.50
2023-07-16T06:22:52.271Z,2.95
2023-07-16T06:25:20.221Z,2.20
2023-07-16T06:27:48.245Z,1.75
2023-07-16T06:30:16.447Z,2.12
2023-07-16T06:32:44.368Z,1.67
2023-07-16T06:35:12.484Z,3.12
2023-07-16T06:37:40.422Z,1.73
2023-07-16T06:40:09.327Z,1.85
2023-07-16T06:42:37.411Z,3.22
2023-07-16T06:45:05.710Z,2.85
2023-07-16T06:47:33.858Z,2.95
2023-07-16T06:50:01.888Z,1.85
2023-07-16T06:52:30.096Z,1.60
2023-07-16T06:54:58.207Z,1.37
2023-07-16T06:57:26.294Z,1.67
2023-07-16T06:59:54.347Z,1.40
2023-07-16T07:02:23.287Z,1.40
2023-07-16T07:04:51.445Z,1.62
2023-07-16T07:07:19.510Z,1.40
2023-07-16T07:09:51.170Z,2.20
2023-07-16T07:12:19.114Z,1.52
2023-07-16T07:14:47.135Z,1.55
2023-07-16T07:17:15.065Z,2.03
2023-07-16T07:19:43.887Z,1.42
2023-07-16T07:22:11.964Z,1.52
2023-07-16T07:24:40.088Z,1.75
2023-07-16T07:27:08.404Z,2.47
2023-07-16T07:29:36.436Z,1.62
2023-07-16T07:32:04.401Z,2.67
2023-07-16T07:34:32.383Z,1.52
2023-07-16T07:37:00.397Z,2.67
2023-07-16T07:39:28.496Z,2.12
2023-07-16T07:41:56.420Z,2.97
2023-07-16T07:44:24.350Z,1.85
2023-07-16T07:46:52.458Z,2.37
2023-07-16T07:49:20.483Z,3.70
2023-07-16T07:51:49.893Z,3.75
2023-07-16T07:54:18.654Z,1.58
2023-07-16T07:56:48.302Z,2.97
2023-07-16T07:59:16.391Z,2.40
2023-07-16T08:01:44.498Z,2.53
2023-07-16T08:04:12.709Z,2.62
2023-07-16T08:06:40.758Z,2.12
2023-07-16T08:09:08.781Z,3.05
2023-07-16T08:11:36.667Z,2.45
2023-07-16T08:14:04.703Z,1.60
2023-07-16T08:16:32.646Z,2.12
2023-07-16T08:19:00.671Z,2.65
2023-07-16T08:21:28.601Z,2.35
2023-07-16T08:23:56.565Z,2.35
2023-07-16T08:26:24.454Z,2.30
2023-07-16T08:28:52.312Z,3.28
2023-07-16T08:31:20.240Z,2.35
2023-07-16T08:33:48.187Z,1.50
2023-07-16T08:36:16.384Z,2.95
2023-07-16T08:38:44.672Z,2.58
2023-07-16T08:41:12.696Z,3.30
2023-07-16T08:43:42.298Z,2.22
2023-07-16T08:46:11.043Z,3.60
2023-07-16T08:48:39.175Z,2.03
2023-07-16T08:51:09.725Z,3.50
2023-07-16T08:53:37.886Z,2.22
2023-07-16T08:56:07.977Z,2.78
2023-07-16T08:58:36.585Z,2.35
2023-07-16T09:01:04.984Z,2.58
2023-07-16T09:03:32.952Z,2.90
2023-07-16T09:06:01.059Z,1.80
2023-07-16T09:08:30.999Z,2.60
2023-07-16T09:10:59.907Z,4.50
2023-07-16T09:13:29.496Z,1.80
2023-07-16T09:15:59.735Z,2.40
2023-07-16T09:18:29.619Z,3.20
2023-07-16T09:21:04.264Z,1.70
2023-07-16T09:23:33.229Z,2.78
2023-07-16T09:26:01.205Z,1.87
2023-07-16T09:28:29.189Z,2.37
2023-07-16T09:30:57.153Z,3.50
2023-07-16T09:33:28.419Z,2.17
2023-07-16T09:35:56.576Z,1.85
2023-07-16T09:38:26.662Z,2.53
2023-07-16T09:40:55.536Z,2.47
2023-07-16T09:43:24.451Z,2.97
2023-07-16T09:45:52.493Z,1.60
2023-07-16T09:48:20.642Z,1.58
2023-07-16T09:50:55.218Z,3.72
2023-07-16T09:53:25.603Z,2.40
2023-07-16T09:55:55.838Z,2.72
2023-07-16T09:58:25.573Z,2.10
2023-07-16T10:00:53.866Z,2.87
2023-07-16T10:03:21.942Z,2.95
2023-07-16T10:05:50.387Z,2.80
2023-07-16T10:08:20.190Z,2.35
2023-07-16T10:10:56.236Z,2.08
2023-07-16T10:13:27.270Z,2.25
2023-07-16T10:16:00.755Z,2.45
2023-07-16T10:18:33.366Z,1.90
2023-07-16T10:21:11.836Z,2.60
2023-07-16T10:23:44.542Z,4.20
2023-07-16T10:26:19.004Z,4.10
2023-07-16T10:28:48.745Z,3.42
2023-07-16T10:31:27.535Z,3.20
2023-07-16T10:34:03.156Z,2.65
2023-07-16T10:36:31.291Z,2.03
2023-07-16T10:39:06.713Z,2.22
2023-07-16T10:41:35.568Z,2.33
2023-07-16T10:44:04.413Z,2.03
2023-07-16T10:46:35.595Z,2.28
2023-07-16T10:49:03.705Z,1.92
2023-07-16T10:51:31.783Z,2.03
2023-07-16T10:54:00.098Z,2.00
2023-07-16T10:56:28.272Z,2.35
2023-07-16T10:58:57.632Z,2.42
2023-07-16T11:01:25.774Z,3.67
2023-07-16T11:03:54.103Z,2.60
2023-07-16T11:06:23.384Z,2.30
2023-07-16T11:08:52.426Z,1.90
2023-07-16T11:11:30.822Z,1.62
2023-07-16T11:13:58.922Z,1.80
2023-07-16T11:16:26.976Z,2.47
2023-07-16T11:18:55.155Z,2.45
2023-07-16T11:21:23.359Z,1.58
2023-07-16T11:23:51.355Z,1.30
2023-07-16T11:26:19.324Z,2.72
2023-07-16T11:28:47.387Z,2.08
2023-07-16T11:31:20.993Z,2.70
2023-07-16T11:33:50.347Z,2.62
2023-07-16T11:36:19.570Z,2.08
2023-07-16T11:38:47.567Z,3.08
2023-07-16T11:41:15.548Z,1.95
2023-07-16T11:43:43.990Z,1.35
2023-07-16T11:46:22.130Z,1.85
2023-07-16T11:48:50.449Z,1.92
2023-07-16T11:51:18.464Z,2.58
2023-07-16T11:53:46.376Z,2.35
2023-07-16T11:56:14.435Z,4.55
2023-07-16T11:58:42.676Z,1.95
2023-07-16T12:01:10.820Z,1.60
2023-07-16T12:03:38.820Z,1.77
2023-07-16T12:06:06.791Z,1.80
2023-07-16T12:08:34.885Z,2.12
2023-07-16T12:11:03.273Z,2.25
2023-07-16T12:13:31.338Z,2.45
2023-07-16T12:15:59.413Z,2.58
2023-07-16T12:18:27.505Z,1.75
2023-07-16T12:20:55.459Z,2.12
2023-07-16T12:23:23.385Z,1.85
2023-07-16T12:25:52.924Z,2.92
2023-07-16T12:28:20.930Z,1.77
2023-07-16T12:30:49.016Z,2.92
2023-07-16T12:33:17.008Z,2.28
2023-07-16T12:35:45.597Z,2.78
2023-07-16T12:38:13.907Z,2.25
2023-07-16T12:40:43.155Z,2.45
2023-07-16T12:43:11.274Z,1.95
2023-07-16T12:45:39.334Z,2.83
2023-07-16T12:48:07.696Z,2.90
2023-07-16T12:50:35.700Z,1.98
2023-07-16T12:53:03.739Z,3.55
2023-07-16T12:55:33.655Z,3.80
2023-07-16T12:58:01.771Z,1.60
2023-07-16T13:00:30.918Z,3.05
2023-07-16T13:02:58.957Z,1.98
2023-07-16T13:05:27.081Z,2.12
2023-07-16T13:07:55.057Z,1.50
2023-07-16T13:10:24.282Z,1.83
2023-07-16T13:12:52.576Z,1.70
2023-07-16T13:15:20.662Z,3.33
2023-07-16T13:17:50.375Z,2.47
2023-07-16T13:20:20.245Z,2.22
2023-07-16T13:22:48.297Z,1.77
2023-07-16T13:25:16.449Z,1.60
2023-07-16T13:27:44.477Z,1.92
2023-07-16T13:30:12.819Z,2.62
2023-07-16T13:32:41.049Z,1.92
2023-07-16T13:35:09.429Z,1.80
2023-07-16T13:37:37.349Z,3.85
2023-07-16T13:40:05.888Z,1.87
2023-07-16T13:42:33.844Z,2.15
2023-07-16T13:45:02.026Z,1.77
2023-07-16T13:47:30.377Z,3.03
2023-07-16T13:49:58.915Z,1.83
2023-07-16T13:52:26.842Z,1.50
2023-07-16T13:54:54.858Z,1.80
2023-07-16T13:57:22.752Z,1.60
2023-07-16T13:59:50.805Z,1.73
2023-07-16T14:02:18.970Z,2.85
2023-07-16T14:04:47.096Z,1.90
2023-07-16T14:07:15.038Z,2.25
2023-07-16T14:09:42.913Z,2.62
2023-07-16T14:12:10.880Z,2.10
2023-07-16T14:14:39.122Z,1.92
2023-07-16T14:17:07.606Z,1.48
2023-07-16T14:19:35.550Z,2.60
2023-07-16T14:22:03.467Z,1.77
2023-07-16T14:24:31.433Z,1.85
2023-07-16T14:27:02.669Z,2.30
2023-07-16T14:29:31.816Z,2.42
2023-07-16T14:31:59.872Z,1.40
2023-07-16T14:34:30.586Z,2.95
2023-07-16T14:36:58.661Z,2.08
2023-07-16T14:39:26.722Z,1.92
2023-07-16T14:41:54.777Z,1.70
2023-07-16T14:44:22.807Z,1.75
2023-07-16T14:46:51.179Z,2.25
2023-07-16T14:49:19.224Z,1.42
2023-07-16T14:51:47.183Z,1.58
2023-07-16T14:54:15.125Z,1.65
2023-07-16T14:56:43.095Z,3.08
2023-07-16T14:59:11.411Z,2.87
2023-07-16T15:01:39.360Z,2.00
2023-07-16T15:04:07.492Z,3.12
2023-07-16T15:06:35.518Z,2.72
2023-07-16T15:09:04.294Z,2.45
2023-07-16T15:11:33.169Z,4.07
2023-07-16T15:14:01.079Z,1.77
2023-07-16T15:16:29.143Z,2.53
2023-07-16T15:18:57.294Z,1.62
2023-07-16T15:21:25.431Z,1.50
2023-07-16T15:23:53.459Z,1.50
2023-07-16T15:26:21.492Z,2.22
2023-07-16T15:28:49.480Z,2.37
2023-07-16T15:31:17.607Z,1.50
2023-07-16T15:33:45.545Z,2.22
2023-07-16T15:36:13.478Z,2.03
2023-07-16T15:38:41.344Z,2.37
2023-07-16T15:41:09.761Z,2.47
2023-07-16T15:43:37.944Z,3.15
2023-07-16T15:46:05.898Z,1.80
2023-07-16T15:48:34.170Z,1.70
2023-07-16T15:51:02.280Z,2.72
2023-07-16T15:53:30.222Z,1.70
2023-07-16T15:55:58.170Z,3.17
2023-07-16T15:58:26.226Z,2.50
2023-07-16T16:00:54.244Z,2.10
2023-07-16T16:03:22.584Z,2.05
2023-07-16T16:05:50.998Z,2.20
2023-07-16T16:08:20.830Z,1.90
2023-07-16T16:10:53.757Z,2.08
2023-07-16T16:13:25.659Z,2.03
2023-07-16T16:15:53.665Z,2.20
2023-07-16T16:18:21.892Z,2.30
2023-07-16T16:20:50.023Z,2.47
2023-07-16T16:23:18.229Z,4.12
2023-07-16T16:25:46.418Z,14.15
2023-07-16T16:28:14.663Z,13.48
2023-07-16T16:30:44.109Z,6.97
2023-07-16T16:33:12.504Z,2.35
2023-07-16T16:35:44.619Z,2.70
2023-07-16T16:38:12.851Z,3.35
2023-07-16T16:40:40.842Z,2.85
2023-07-16T16:43:09.005Z,1.98
2023-07-16T16:45:41.162Z,2.75
2023-07-16T16:48:10.653Z,1.62
2023-07-16T16:50:39.588Z,2.87
2023-07-16T16:53:10.622Z,2.65
2023-07-16T16:55:38.797Z,2.33
2023-07-16T16:58:06.939Z,3.70
2023-07-16T17:00:35.015Z,2.10
2023-07-16T17:03:03.236Z,2.25
2023-07-16T17:05:35.425Z,2.08
2023-07-16T17:08:04.705Z,3.37
2023-07-16T17:10:32.732Z,2.00
2023-07-16T17:13:01.041Z,2.25
2023-07-16T17:15:29.139Z,2.83
2023-07-16T17:18:00.207Z,1.80
2023-07-16T17:20:28.700Z,3.30
2023-07-16T17:22:56.743Z,2.33
2023-07-16T17:25:24.804Z,2.45
2023-07-16T17:27:52.784Z,3.22
2023-07-16T17:30:20.943Z,3.83
2023-07-16T17:32:48.971Z,2.62
2023-07-16T17:35:17.401Z,3.37
2023-07-16T17:37:46.208Z,3.12
2023-07-16T17:40:14.656Z,2.60
2023-07-16T17:42:43.357Z,2.70
2023-07-16T17:45:11.840Z,4.30
2023-07-16T17:47:39.883Z,2.22
2023-07-16T17:50:08.401Z,2.40
2023-07-16T17:52:36.554Z,3.12
2023-07-16T17:55:04.539Z,3.85
2023-07-16T17:57:32.690Z,7.22
2023-07-16T18:00:17.380Z,5.30
2023-07-16T18:02:48.542Z,2.95
2023-07-16T18:05:16.792Z,3.33
2023-07-16T18:07:44.917Z,3.05
2023-07-16T18:10:13.170Z,4.03
2023-07-16T18:12:41.176Z,2.95
2023-07-16T18:15:09.533Z,3.35
2023-07-16T18:17:38.696Z,3.42
2023-07-16T18:20:11.779Z,3.87
2023-07-16T18:22:41.219Z,3.90
2023-07-16T18:25:09.628Z,3.78
2023-07-16T18:27:39.643Z,4.07
2023-07-16T18:30:08.566Z,4.80
2023-07-16T18:32:36.656Z,4.82
2023-07-16T18:35:05.972Z,4.30
2023-07-16T18:37:36.783Z,4.25
2023-07-16T18:40:06.230Z,3.20
2023-07-16T18:42:34.529Z,4.32
2023-07-16T18:45:04.646Z,4.60
2023-07-16T18:47:32.714Z,4.25
2023-07-16T18:50:01.177Z,3.37
2023-07-16T18:52:29.149Z,3.92
2023-07-16T18:54:57.611Z,2.70
2023-07-16T18:57:28.558Z,5.10
2023-07-16T18:59:56.615Z,3.72
2023-07-16T19:02:24.549Z,3.42
2023-07-16T19:04:52.619Z,2.72
2023-07-16T19:07:21.160Z,4.35
2023-07-16T19:09:49.130Z,4.03
2023-07-16T19:12:17.079Z,4.15
2023-07-16T19:14:44.959Z,3.67
2023-07-16T19:17:17.692Z,4.32
2023-07-16T19:19:46.168Z,4.10
2023-07-16T19:22:14.421Z,4.97
2023-07-16T19:24:45.314Z,4.60
2023-07-16T19:27:15.904Z,3.85
2023-07-16T19:29:44.216Z,4.65
2023-07-16T19:32:12.284Z,4.03
2023-07-16T19:34:40.432Z,4.85
2023-07-16T19:37:10.239Z,3.78
2023-07-16T19:39:38.151Z,3.20
2023-07-16T19:42:14.728Z,3.60
2023-07-16T19:44:42.729Z,3.12
2023-07-16T19:47:10.733Z,3.28
2023-07-16T19:49:38.743Z,5.25
2023-07-16T19:52:06.709Z,5.15
2023-07-16T19:54:34.647Z,5.72
2023-07-16T19:57:02.638Z,3.17
2023-07-16T19:59:30.816Z,4.32
2023-07-16T20:01:59.170Z,5.28
2023-07-16T20:04:27.055Z,5.97
2023-07-16T20:07:11.349Z,5.62
2023-07-16T20:09:40.549Z,4.95
2023-07-16T20:12:09.108Z,4.40
2023-07-16T20:14:37.144Z,4.10
2023-07-16T20:17:05.657Z,4.93
2023-07-16T20:19:34.374Z,5.65
2023-07-16T20:22:02.336Z,4.57
2023-07-16T20:24:30.372Z,5.37
2023-07-16T20:26:58.349Z,6.28
2023-07-16T20:29:26.253Z,4.12
2023-07-16T20:31:54.200Z,4.20
2023-07-16T20:34:22.154Z,5.60
2023-07-16T20:36:50.209Z,4.12
2023-07-16T20:39:18.750Z,4.72
2023-07-16T20:41:46.812Z,5.75
2023-07-16T20:44:15.857Z,5.10
2023-07-16T20:46:43.826Z,5.07
2023-07-16T20:49:11.838Z,4.57
2023-07-16T20:51:39.776Z,5.72
2023-07-16T20:54:10.610Z,4.37
2023-07-16T20:56:38.649Z,4.60
2023-07-16T20:59:06.701Z,4.32
2023-07-16T21:01:35.007Z,4.72
2023-07-16T21:04:06.294Z,4.87
2023-07-16T21:06:34.225Z,6.47
2023-07-16T21:09:02.293Z,4.60
2023-07-16T21:11:30.564Z,4.05
2023-07-16T21:13:58.984Z,4.62
2023-07-16T21:16:29.837Z,5.90
2023-07-16T21:18:57.847Z,6.85
2023-07-16T21:21:25.831Z,4.93
2023-07-16T21:23:53.838Z,4.70
2023-07-16T21:26:24.494Z,6.03
2023-07-16T21:28:55.288Z,3.65
2023-07-16T21:31:26.069Z,3.58
2023-07-16T21:33:58.208Z,3.75
2023-07-16T21:36:26.297Z,3.80
2023-07-16T21:38:54.326Z,4.25
2023-07-16T21:41:25.128Z,4.20
2023-07-16T21:43:53.075Z,4.12
2023-07-16T21:46:22.448Z,3.33
2023-07-16T21:48:50.717Z,3.55
2023-07-16T21:51:19.028Z,5.75
2023-07-16T21:53:47.137Z,3.45
2023-07-16T21:56:16.128Z,4.57
2023-07-16T21:58:44.187Z,4.05
2023-07-16T22:01:12.124Z,4.25
2023-07-16T22:03:40.036Z,3.95
2023-07-16T22:06:13.389Z,5.25
2023-07-16T22:08:44.078Z,3.08
2023-07-16T22:11:12.017Z,3.83
2023-07-16T22:13:40.004Z,4.55
2023-07-16T22:16:08.409Z,4.00
2023-07-16T22:18:39.943Z,3.72
2023-07-16T22:21:16.431Z,5.25
2023-07-16T22:23:44.509Z,3.67
2023-07-16T22:26:12.428Z,5.18
2023-07-16T22:28:40.461Z,3.83
2023-07-16T22:31:08.503Z,3.78
2023-07-16T22:33:37.498Z,5.05
2023-07-16T22:36:05.648Z,4.35
2023-07-16T22:38:34.541Z,4.57
2023-07-16T22:41:02.548Z,3.17
2023-07-16T22:43:30.535Z,3.47
2023-07-16T22:45:58.523Z,4.53
2023-07-16T22:48:26.540Z,4.75
2023-07-16T22:50:54.692Z,4.28
2023-07-16T22:53:22.965Z,4.82
2023-07-16T22:55:53.063Z,3.45
2023-07-16T22:58:20.964Z,4.50
2023-07-16T23:00:48.869Z,4.00
2023-07-16T23:03:16.969Z,4.25
2023-07-16T23:05:45.165Z,5.32
2023-07-16T23:08:13.126Z,4.95
2023-07-16T23:10:41.221Z,4.60
2023-07-16T23:13:09.319Z,4.60
2023-07-16T23:15:37.472Z,5.28
2023-07-16T23:18:05.482Z,3.67
2023-07-16T23:20:33.446Z,5.00
2023-07-16T23:23:03.333Z,3.97
2023-07-16T23:25:31.333Z,3.50
2023-07-16T23:27:59.290Z,4.55
2023-07-16T23:30:27.256Z,4.87
2023-07-16T23:32:55.390Z,3.40
2023-07-16T23:35:23.284Z,5.20
2023-07-16T23:37:51.397Z,4.15
2023-07-16T23:40:20.985Z,3.92
2023-07-16T23:42:49.585Z,4.43
2023-07-16T23:45:17.664Z,2.70
2023-07-16T23:47:45.655Z,4.80
2023-07-16T23:50:13.848Z,5.00
2023-07-16T23:52:41.937Z,3.28
2023-07-16T23:55:11.127Z,5.28
2023-07-16T23:57:39.245Z,5.07
